sensor_id;sensor_type;location;lat;lon;timestamp;temperature;humidity
71237;DHT22;58984;51.960;5.582;2024-01-06T00:00:32;13.40;66.70
71237;DHT22;58984;51.960;5.582;2024-01-06T00:02:57;13.40;66.80
71237;DHT22;58984;51.960;5.582;2024-01-06T00:05:23;13.30;66.60
71237;DHT22;58984;51.960;5.582;2024-01-06T00:07:48;13.30;66.60
71237;DHT22;58984;51.960;5.582;2024-01-06T00:10:14;13.30;66.50
71237;DHT22;58984;51.960;5.582;2024-01-06T00:12:40;13.40;66.60
71237;DHT22;58984;51.960;5.582;2024-01-06T00:15:06;13.30;66.50
71237;DHT22;58984;51.960;5.582;2024-01-06T00:17:32;13.30;67.30
71237;DHT22;58984;51.960;5.582;2024-01-06T00:19:57;13.40;66.60
71237;DHT22;58984;51.960;5.582;2024-01-06T00:22:25;13.30;66.40
71237;DHT22;58984;51.960;5.582;2024-01-06T00:24:51;13.30;66.40
71237;DHT22;58984;51.960;5.582;2024-01-06T00:27:17;13.40;66.60
71237;DHT22;58984;51.960;5.582;2024-01-06T00:29:42;13.30;66.40
71237;DHT22;58984;51.960;5.582;2024-01-06T00:32:08;13.40;66.40
71237;DHT22;58984;51.960;5.582;2024-01-06T00:34:34;13.30;66.40
71237;DHT22;58984;51.960;5.582;2024-01-06T00:36:59;13.30;66.30
71237;DHT22;58984;51.960;5.582;2024-01-06T00:39:25;13.30;67.10
71237;DHT22;58984;51.960;5.582;2024-01-06T00:41:50;13.30;66.30
71237;DHT22;58984;51.960;5.582;2024-01-06T00:44:16;13.30;66.30
71237;DHT22;58984;51.960;5.582;2024-01-06T00:46:42;13.30;66.20
71237;DHT22;58984;51.960;5.582;2024-01-06T00:49:07;13.30;66.30
71237;DHT22;58984;51.960;5.582;2024-01-06T00:51:33;13.30;66.30
71237;DHT22;58984;51.960;5.582;2024-01-06T00:53:58;13.30;66.20
71237;DHT22;58984;51.960;5.582;2024-01-06T00:56:24;13.30;66.20
71237;DHT22;58984;51.960;5.582;2024-01-06T00:58:49;13.30;66.00
71237;DHT22;58984;51.960;5.582;2024-01-06T01:01:15;13.30;66.00
71237;DHT22;58984;51.960;5.582;2024-01-06T01:03:41;13.20;65.90
71237;DHT22;58984;51.960;5.582;2024-01-06T01:06:06;13.30;66.00
71237;DHT22;58984;51.960;5.582;2024-01-06T01:08:35;13.20;65.90
71237;DHT22;58984;51.960;5.582;2024-01-06T01:11:00;13.20;66.00
71237;DHT22;58984;51.960;5.582;2024-01-06T01:13:26;13.20;65.90
71237;DHT22;58984;51.960;5.582;2024-01-06T01:15:51;13.20;65.90
71237;DHT22;58984;51.960;5.582;2024-01-06T01:18:17;13.20;65.90
71237;DHT22;58984;51.960;5.582;2024-01-06T01:20:43;13.20;65.90
71237;DHT22;58984;51.960;5.582;2024-01-06T01:23:08;13.20;65.90
71237;DHT22;58984;51.960;5.582;2024-01-06T01:25:34;13.20;65.90
71237;DHT22;58984;51.960;5.582;2024-01-06T01:28:00;13.20;65.90
71237;DHT22;58984;51.960;5.582;2024-01-06T01:30:25;13.20;65.90
71237;DHT22;58984;51.960;5.582;2024-01-06T01:32:51;13.20;66.60
71237;DHT22;58984;51.960;5.582;2024-01-06T01:35:16;13.20;65.90
71237;DHT22;58984;51.960;5.582;2024-01-06T01:37:42;13.20;65.80
71237;DHT22;58984;51.960;5.582;2024-01-06T01:40:08;13.20;65.80
71237;DHT22;58984;51.960;5.582;2024-01-06T01:42:34;13.10;65.70
71237;DHT22;58984;51.960;5.582;2024-01-06T01:44:59;13.20;65.90
71237;DHT22;58984;51.960;5.582;2024-01-06T01:47:25;13.10;65.80
71237;DHT22;58984;51.960;5.582;2024-01-06T01:49:54;13.10;65.70
71237;DHT22;58984;51.960;5.582;2024-01-06T01:52:20;13.10;65.70
71237;DHT22;58984;51.960;5.582;2024-01-06T01:54:46;13.20;65.80
71237;DHT22;58984;51.960;5.582;2024-01-06T01:57:14;13.10;65.70
71237;DHT22;58984;51.960;5.582;2024-01-06T01:59:41;13.10;65.80
71237;DHT22;58984;51.960;5.582;2024-01-06T02:02:08;13.10;65.70
71237;DHT22;58984;51.960;5.582;2024-01-06T02:04:34;13.00;65.60
71237;DHT22;58984;51.960;5.582;2024-01-06T02:07:00;13.10;65.70
71237;DHT22;58984;51.960;5.582;2024-01-06T02:09:25;13.10;66.50
71237;DHT22;58984;51.960;5.582;2024-01-06T02:11:56;13.10;65.70
71237;DHT22;58984;51.960;5.582;2024-01-06T02:14:22;13.10;65.70
71237;DHT22;58984;51.960;5.582;2024-01-06T02:16:47;13.10;65.70
71237;DHT22;58984;51.960;5.582;2024-01-06T02:19:13;13.10;65.60
71237;DHT22;58984;51.960;5.582;2024-01-06T02:21:42;13.10;65.70
71237;DHT22;58984;51.960;5.582;2024-01-06T02:24:08;13.10;65.60
71237;DHT22;58984;51.960;5.582;2024-01-06T02:26:34;13.00;65.40
71237;DHT22;58984;51.960;5.582;2024-01-06T02:28:59;13.10;65.60
71237;DHT22;58984;51.960;5.582;2024-01-06T02:31:25;13.00;65.40
71237;DHT22;58984;51.960;5.582;2024-01-06T02:33:50;13.00;65.40
71237;DHT22;58984;51.960;5.582;2024-01-06T02:36:16;13.00;65.40
71237;DHT22;58984;51.960;5.582;2024-01-06T02:38:42;13.00;65.30
71237;DHT22;58984;51.960;5.582;2024-01-06T02:41:07;13.00;65.40
71237;DHT22;58984;51.960;5.582;2024-01-06T02:43:33;13.00;65.30
71237;DHT22;58984;51.960;5.582;2024-01-06T02:45:58;13.00;65.30
71237;DHT22;58984;51.960;5.582;2024-01-06T02:48:24;13.00;65.20
71237;DHT22;58984;51.960;5.582;2024-01-06T02:50:50;13.00;65.10
71237;DHT22;58984;51.960;5.582;2024-01-06T02:53:15;13.00;65.20
71237;DHT22;58984;51.960;5.582;2024-01-06T02:55:41;13.00;65.20
71237;DHT22;58984;51.960;5.582;2024-01-06T02:58:07;13.00;65.10
71237;DHT22;58984;51.960;5.582;2024-01-06T03:00:32;13.00;65.20
71237;DHT22;58984;51.960;5.582;2024-01-06T03:02:58;13.00;65.10
71237;DHT22;58984;51.960;5.582;2024-01-06T03:05:23;13.00;65.10
71237;DHT22;58984;51.960;5.582;2024-01-06T03:07:49;12.90;65.00
71237;DHT22;58984;51.960;5.582;2024-01-06T03:10:15;12.90;65.00
71237;DHT22;58984;51.960;5.582;2024-01-06T03:12:40;12.90;65.00
71237;DHT22;58984;51.960;5.582;2024-01-06T03:15:06;13.00;65.00
71237;DHT22;58984;51.960;5.582;2024-01-06T03:17:32;12.90;65.00
71237;DHT22;58984;51.960;5.582;2024-01-06T03:19:57;12.90;65.00
71237;DHT22;58984;51.960;5.582;2024-01-06T03:22:23;12.90;65.00
71237;DHT22;58984;51.960;5.582;2024-01-06T03:24:48;12.90;65.00
71237;DHT22;58984;51.960;5.582;2024-01-06T03:27:14;12.90;64.90
71237;DHT22;58984;51.960;5.582;2024-01-06T03:29:40;12.90;64.80
71237;DHT22;58984;51.960;5.582;2024-01-06T03:32:06;12.90;64.80
71237;DHT22;58984;51.960;5.582;2024-01-06T03:34:34;12.90;64.80
71237;DHT22;58984;51.960;5.582;2024-01-06T03:37:00;12.90;64.90
71237;DHT22;58984;51.960;5.582;2024-01-06T03:39:25;12.80;64.80
71237;DHT22;58984;51.960;5.582;2024-01-06T03:41:51;12.90;64.90
71237;DHT22;58984;51.960;5.582;2024-01-06T03:44:17;12.90;64.90
71237;DHT22;58984;51.960;5.582;2024-01-06T03:46:42;12.90;64.90
71237;DHT22;58984;51.960;5.582;2024-01-06T03:49:08;12.90;64.90
71237;DHT22;58984;51.960;5.582;2024-01-06T03:51:33;12.80;64.80
71237;DHT22;58984;51.960;5.582;2024-01-06T03:53:59;12.80;64.80
71237;DHT22;58984;51.960;5.582;2024-01-06T03:56:24;12.80;64.80
71237;DHT22;58984;51.960;5.582;2024-01-06T03:58:50;12.80;64.80
71237;DHT22;58984;51.960;5.582;2024-01-06T04:01:16;12.80;64.80
71237;DHT22;58984;51.960;5.582;2024-01-06T04:03:41;12.80;64.80
71237;DHT22;58984;51.960;5.582;2024-01-06T04:06:07;12.80;64.90
71237;DHT22;58984;51.960;5.582;2024-01-06T04:08:33;12.80;64.80
71237;DHT22;58984;51.960;5.582;2024-01-06T04:10:58;12.80;65.60
71237;DHT22;58984;51.960;5.582;2024-01-06T04:13:24;12.80;64.80
71237;DHT22;58984;51.960;5.582;2024-01-06T04:15:51;12.80;64.80
71237;DHT22;58984;51.960;5.582;2024-01-06T04:18:17;12.80;65.60
71237;DHT22;58984;51.960;5.582;2024-01-06T04:20:42;12.80;64.70
71237;DHT22;58984;51.960;5.582;2024-01-06T04:23:08;12.80;64.70
71237;DHT22;58984;51.960;5.582;2024-01-06T04:25:33;12.80;64.70
71237;DHT22;58984;51.960;5.582;2024-01-06T04:27:59;12.80;64.70
71237;DHT22;58984;51.960;5.582;2024-01-06T04:30:25;12.80;64.80
71237;DHT22;58984;51.960;5.582;2024-01-06T04:32:51;12.80;64.80
71237;DHT22;58984;51.960;5.582;2024-01-06T04:35:17;12.80;64.70
71237;DHT22;58984;51.960;5.582;2024-01-06T04:37:43;12.80;64.70
71237;DHT22;58984;51.960;5.582;2024-01-06T04:40:10;12.80;64.70
71237;DHT22;58984;51.960;5.582;2024-01-06T04:42:35;12.70;64.60
71237;DHT22;58984;51.960;5.582;2024-01-06T04:45:01;12.80;64.70
71237;DHT22;58984;51.960;5.582;2024-01-06T04:47:28;12.70;64.50
71237;DHT22;58984;51.960;5.582;2024-01-06T04:49:56;12.80;64.70
71237;DHT22;58984;51.960;5.582;2024-01-06T04:52:21;12.70;64.60
71237;DHT22;58984;51.960;5.582;2024-01-06T04:54:47;12.70;64.60
71237;DHT22;58984;51.960;5.582;2024-01-06T04:57:12;12.70;64.50
71237;DHT22;58984;51.960;5.582;2024-01-06T04:59:38;12.70;64.50
71237;DHT22;58984;51.960;5.582;2024-01-06T05:02:04;12.70;64.50
71237;DHT22;58984;51.960;5.582;2024-01-06T05:04:29;12.70;64.50
71237;DHT22;58984;51.960;5.582;2024-01-06T05:06:57;12.70;64.50
71237;DHT22;58984;51.960;5.582;2024-01-06T05:09:23;12.70;64.50
71237;DHT22;58984;51.960;5.582;2024-01-06T05:11:48;12.70;64.50
71237;DHT22;58984;51.960;5.582;2024-01-06T05:14:14;12.70;64.40
71237;DHT22;58984;51.960;5.582;2024-01-06T05:16:40;12.70;64.40
71237;DHT22;58984;51.960;5.582;2024-01-06T05:19:05;12.70;64.40
71237;DHT22;58984;51.960;5.582;2024-01-06T05:21:31;12.70;64.40
71237;DHT22;58984;51.960;5.582;2024-01-06T05:23:57;12.70;64.40
71237;DHT22;58984;51.960;5.582;2024-01-06T05:26:22;12.70;64.40
71237;DHT22;58984;51.960;5.582;2024-01-06T05:28:48;12.60;64.20
71237;DHT22;58984;51.960;5.582;2024-01-06T05:31:14;12.70;64.40
71237;DHT22;58984;51.960;5.582;2024-01-06T05:33:40;12.60;64.20
71237;DHT22;58984;51.960;5.582;2024-01-06T05:36:05;12.60;65.00
71237;DHT22;58984;51.960;5.582;2024-01-06T05:38:31;12.60;64.20
71237;DHT22;58984;51.960;5.582;2024-01-06T05:40:57;12.60;64.20
71237;DHT22;58984;51.960;5.582;2024-01-06T05:43:22;12.60;64.20
71237;DHT22;58984;51.960;5.582;2024-01-06T05:45:48;12.60;64.20
71237;DHT22;58984;51.960;5.582;2024-01-06T05:48:13;12.60;64.20
71237;DHT22;58984;51.960;5.582;2024-01-06T05:50:39;12.60;64.20
71237;DHT22;58984;51.960;5.582;2024-01-06T05:53:05;12.60;64.30
71237;DHT22;58984;51.960;5.582;2024-01-06T05:55:30;12.60;64.20
71237;DHT22;58984;51.960;5.582;2024-01-06T05:57:56;12.60;64.20
71237;DHT22;58984;51.960;5.582;2024-01-06T06:00:22;12.60;64.10
71237;DHT22;58984;51.960;5.582;2024-01-06T06:02:48;12.60;64.10
71237;DHT22;58984;51.960;5.582;2024-01-06T06:05:14;12.60;64.80
71237;DHT22;58984;51.960;5.582;2024-01-06T06:07:39;12.60;63.90
71237;DHT22;58984;51.960;5.582;2024-01-06T06:10:09;12.60;63.90
71237;DHT22;58984;51.960;5.582;2024-01-06T06:12:35;12.50;63.80
71237;DHT22;58984;51.960;5.582;2024-01-06T06:15:02;12.50;63.70
71237;DHT22;58984;51.960;5.582;2024-01-06T06:17:32;12.60;63.90
71237;DHT22;58984;51.960;5.582;2024-01-06T06:19:58;12.60;64.00
71237;DHT22;58984;51.960;5.582;2024-01-06T06:22:24;12.50;63.70
71237;DHT22;58984;51.960;5.582;2024-01-06T06:24:52;12.50;63.90
71237;DHT22;58984;51.960;5.582;2024-01-06T06:27:18;12.50;63.70
71237;DHT22;58984;51.960;5.582;2024-01-06T06:29:43;12.50;63.60
71237;DHT22;58984;51.960;5.582;2024-01-06T06:32:09;12.50;63.60
71237;DHT22;58984;51.960;5.582;2024-01-06T06:34:34;12.50;63.60
71237;DHT22;58984;51.960;5.582;2024-01-06T06:37:00;12.50;63.60
71237;DHT22;58984;51.960;5.582;2024-01-06T06:39:26;12.50;63.60
71237;DHT22;58984;51.960;5.582;2024-01-06T06:41:52;12.50;63.60
71237;DHT22;58984;51.960;5.582;2024-01-06T06:44:18;12.50;63.50
71237;DHT22;58984;51.960;5.582;2024-01-06T06:46:43;12.50;63.50
71237;DHT22;58984;51.960;5.582;2024-01-06T06:49:09;12.50;63.50
71237;DHT22;58984;51.960;5.582;2024-01-06T06:51:34;12.40;63.40
71237;DHT22;58984;51.960;5.582;2024-01-06T06:54:00;12.40;63.40
71237;DHT22;58984;51.960;5.582;2024-01-06T06:56:26;12.40;63.30
71237;DHT22;58984;51.960;5.582;2024-01-06T06:58:51;12.40;63.30
71237;DHT22;58984;51.960;5.582;2024-01-06T07:01:18;12.40;63.30
71237;DHT22;58984;51.960;5.582;2024-01-06T07:03:43;12.40;63.30
71237;DHT22;58984;51.960;5.582;2024-01-06T07:06:12;12.40;63.40
71237;DHT22;58984;51.960;5.582;2024-01-06T07:08:37;12.40;63.30
71237;DHT22;58984;51.960;5.582;2024-01-06T07:11:04;12.40;63.30
71237;DHT22;58984;51.960;5.582;2024-01-06T07:13:29;12.40;63.30
71237;DHT22;58984;51.960;5.582;2024-01-06T07:15:55;12.40;63.20
71237;DHT22;58984;51.960;5.582;2024-01-06T07:18:21;12.40;63.20
71237;DHT22;58984;51.960;5.582;2024-01-06T07:20:48;12.40;64.00
71237;DHT22;58984;51.960;5.582;2024-01-06T07:23:14;12.30;63.10
71237;DHT22;58984;51.960;5.582;2024-01-06T07:25:40;12.30;63.10
71237;DHT22;58984;51.960;5.582;2024-01-06T07:28:06;12.30;63.10
71237;DHT22;58984;51.960;5.582;2024-01-06T07:30:31;12.30;63.10
71237;DHT22;58984;51.960;5.582;2024-01-06T07:32:58;12.30;63.10
71237;DHT22;58984;51.960;5.582;2024-01-06T07:35:24;12.30;63.10
71237;DHT22;58984;51.960;5.582;2024-01-06T07:37:49;12.30;63.10
71237;DHT22;58984;51.960;5.582;2024-01-06T07:40:15;12.30;63.10
71237;DHT22;58984;51.960;5.582;2024-01-06T07:42:42;12.30;63.10
71237;DHT22;58984;51.960;5.582;2024-01-06T07:45:08;12.30;63.10
71237;DHT22;58984;51.960;5.582;2024-01-06T07:47:33;12.20;62.90
71237;DHT22;58984;51.960;5.582;2024-01-06T07:49:59;12.30;64.00
71237;DHT22;58984;51.960;5.582;2024-01-06T07:52:25;12.30;63.10
71237;DHT22;58984;51.960;5.582;2024-01-06T07:54:50;12.30;63.10
71237;DHT22;58984;51.960;5.582;2024-01-06T07:57:16;12.30;63.10
71237;DHT22;58984;51.960;5.582;2024-01-06T07:59:41;12.20;62.90
71237;DHT22;58984;51.960;5.582;2024-01-06T08:02:08;12.20;62.90
71237;DHT22;58984;51.960;5.582;2024-01-06T08:04:34;12.20;62.90
71237;DHT22;58984;51.960;5.582;2024-01-06T08:07:00;12.20;62.80
71237;DHT22;58984;51.960;5.582;2024-01-06T08:09:25;12.20;63.00
71237;DHT22;58984;51.960;5.582;2024-01-06T08:11:51;12.20;62.90
71237;DHT22;58984;51.960;5.582;2024-01-06T08:14:16;12.20;62.80
71237;DHT22;58984;51.960;5.582;2024-01-06T08:16:45;12.20;62.90
71237;DHT22;58984;51.960;5.582;2024-01-06T08:19:14;12.20;62.60
71237;DHT22;58984;51.960;5.582;2024-01-06T08:21:39;12.20;62.90
71237;DHT22;58984;51.960;5.582;2024-01-06T08:24:05;12.20;62.80
71237;DHT22;58984;51.960;5.582;2024-01-06T08:26:31;12.20;62.80
71237;DHT22;58984;51.960;5.582;2024-01-06T08:28:56;12.20;62.80
71237;DHT22;58984;51.960;5.582;2024-01-06T08:31:22;12.20;62.80
71237;DHT22;58984;51.960;5.582;2024-01-06T08:33:48;12.20;62.80
71237;DHT22;58984;51.960;5.582;2024-01-06T08:36:14;12.10;62.60
71237;DHT22;58984;51.960;5.582;2024-01-06T08:38:39;12.20;62.80
71237;DHT22;58984;51.960;5.582;2024-01-06T08:41:05;12.20;62.80
71237;DHT22;58984;51.960;5.582;2024-01-06T08:43:30;12.10;62.70
71237;DHT22;58984;51.960;5.582;2024-01-06T08:45:56;12.10;62.70
71237;DHT22;58984;51.960;5.582;2024-01-06T08:48:22;12.10;62.60
71237;DHT22;58984;51.960;5.582;2024-01-06T08:50:47;12.10;62.60
71237;DHT22;58984;51.960;5.582;2024-01-06T08:53:13;12.10;62.60
71237;DHT22;58984;51.960;5.582;2024-01-06T08:55:39;12.20;62.70
71237;DHT22;58984;51.960;5.582;2024-01-06T08:58:04;12.10;62.60
71237;DHT22;58984;51.960;5.582;2024-01-06T09:00:31;12.10;62.60
71237;DHT22;58984;51.960;5.582;2024-01-06T09:02:56;12.10;62.70
71237;DHT22;58984;51.960;5.582;2024-01-06T09:05:22;12.10;62.70
71237;DHT22;58984;51.960;5.582;2024-01-06T09:07:47;12.10;62.70
71237;DHT22;58984;51.960;5.582;2024-01-06T09:10:16;12.10;62.70
71237;DHT22;58984;51.960;5.582;2024-01-06T09:12:42;12.10;62.70
71237;DHT22;58984;51.960;5.582;2024-01-06T09:15:08;12.00;62.50
71237;DHT22;58984;51.960;5.582;2024-01-06T09:17:34;12.10;62.70
71237;DHT22;58984;51.960;5.582;2024-01-06T09:20:00;12.10;62.70
71237;DHT22;58984;51.960;5.582;2024-01-06T09:22:27;12.10;62.70
71237;DHT22;58984;51.960;5.582;2024-01-06T09:24:52;12.00;62.60
71237;DHT22;58984;51.960;5.582;2024-01-06T09:27:19;12.00;62.60
71237;DHT22;58984;51.960;5.582;2024-01-06T09:29:45;12.00;62.70
71237;DHT22;58984;51.960;5.582;2024-01-06T09:32:10;12.00;62.70
71237;DHT22;58984;51.960;5.582;2024-01-06T09:34:36;12.00;62.70
71237;DHT22;58984;51.960;5.582;2024-01-06T09:37:02;12.00;62.60
71237;DHT22;58984;51.960;5.582;2024-01-06T09:39:28;12.00;62.60
71237;DHT22;58984;51.960;5.582;2024-01-06T09:41:56;12.00;62.60
71237;DHT22;58984;51.960;5.582;2024-01-06T09:44:22;12.00;62.60
71237;DHT22;58984;51.960;5.582;2024-01-06T09:46:47;12.00;62.40
71237;DHT22;58984;51.960;5.582;2024-01-06T09:49:14;12.00;62.50
71237;DHT22;58984;51.960;5.582;2024-01-06T09:51:41;12.00;62.60
71237;DHT22;58984;51.960;5.582;2024-01-06T09:54:12;12.00;62.50
71237;DHT22;58984;51.960;5.582;2024-01-06T09:56:39;12.00;62.50
71237;DHT22;58984;51.960;5.582;2024-01-06T09:59:05;12.00;62.50
71237;DHT22;58984;51.960;5.582;2024-01-06T10:01:30;12.00;62.60
71237;DHT22;58984;51.960;5.582;2024-01-06T10:03:56;12.00;62.50
71237;DHT22;58984;51.960;5.582;2024-01-06T10:06:22;12.00;62.60
71237;DHT22;58984;51.960;5.582;2024-01-06T10:08:52;12.00;62.60
71237;DHT22;58984;51.960;5.582;2024-01-06T10:11:18;12.00;62.60
71237;DHT22;58984;51.960;5.582;2024-01-06T10:13:44;12.00;62.60
71237;DHT22;58984;51.960;5.582;2024-01-06T10:16:10;12.00;62.60
71237;DHT22;58984;51.960;5.582;2024-01-06T10:18:35;12.00;62.50
71237;DHT22;58984;51.960;5.582;2024-01-06T10:21:05;12.00;62.60
71237;DHT22;58984;51.960;5.582;2024-01-06T10:23:32;11.90;62.60
71237;DHT22;58984;51.960;5.582;2024-01-06T10:25:58;11.90;62.60
71237;DHT22;58984;51.960;5.582;2024-01-06T10:28:24;11.90;62.70
71237;DHT22;58984;51.960;5.582;2024-01-06T10:30:52;11.90;62.50
71237;DHT22;58984;51.960;5.582;2024-01-06T10:33:19;11.90;62.50
71237;DHT22;58984;51.960;5.582;2024-01-06T10:35:45;11.90;62.50
71237;DHT22;58984;51.960;5.582;2024-01-06T10:38:11;11.90;62.50
71237;DHT22;58984;51.960;5.582;2024-01-06T10:40:37;12.00;62.60
71237;DHT22;58984;51.960;5.582;2024-01-06T10:43:03;11.90;62.50
71237;DHT22;58984;51.960;5.582;2024-01-06T10:45:29;11.90;62.60
71237;DHT22;58984;51.960;5.582;2024-01-06T10:47:55;11.90;62.60
71237;DHT22;58984;51.960;5.582;2024-01-06T10:50:22;11.90;62.70
71237;DHT22;58984;51.960;5.582;2024-01-06T10:52:48;11.90;62.70
71237;DHT22;58984;51.960;5.582;2024-01-06T10:55:18;11.90;62.70
71237;DHT22;58984;51.960;5.582;2024-01-06T10:57:46;11.90;62.70
71237;DHT22;58984;51.960;5.582;2024-01-06T11:00:12;11.90;62.70
71237;DHT22;58984;51.960;5.582;2024-01-06T11:02:39;11.90;62.70
71237;DHT22;58984;51.960;5.582;2024-01-06T11:05:05;11.90;62.70
71237;DHT22;58984;51.960;5.582;2024-01-06T11:07:36;11.90;62.60
71237;DHT22;58984;51.960;5.582;2024-01-06T11:10:15;11.90;62.60
71237;DHT22;58984;51.960;5.582;2024-01-06T11:12:44;11.90;62.70
71237;DHT22;58984;51.960;5.582;2024-01-06T11:15:41;11.90;62.70
71237;DHT22;58984;51.960;5.582;2024-01-06T11:18:06;11.90;62.70
71237;DHT22;58984;51.960;5.582;2024-01-06T11:20:32;12.00;62.80
71237;DHT22;58984;51.960;5.582;2024-01-06T11:23:17;11.90;62.70
71237;DHT22;58984;51.960;5.582;2024-01-06T11:25:44;11.90;62.70
71237;DHT22;58984;51.960;5.582;2024-01-06T11:28:10;11.90;62.70
71237;DHT22;58984;51.960;5.582;2024-01-06T11:30:37;11.90;63.60
71237;DHT22;58984;51.960;5.582;2024-01-06T11:33:04;11.90;62.80
71237;DHT22;58984;51.960;5.582;2024-01-06T11:35:30;11.90;62.80
71237;DHT22;58984;51.960;5.582;2024-01-06T11:38:02;11.90;62.80
71237;DHT22;58984;51.960;5.582;2024-01-06T11:40:35;11.90;62.80
71237;DHT22;58984;51.960;5.582;2024-01-06T11:43:08;11.90;62.80
71237;DHT22;58984;51.960;5.582;2024-01-06T11:45:36;11.90;61.80
71237;DHT22;58984;51.960;5.582;2024-01-06T11:48:07;11.90;61.20
71237;DHT22;58984;51.960;5.582;2024-01-06T11:50:35;11.90;61.60
71237;DHT22;58984;51.960;5.582;2024-01-06T11:53:02;11.90;61.60
71237;DHT22;58984;51.960;5.582;2024-01-06T11:55:28;11.90;61.80
71237;DHT22;58984;51.960;5.582;2024-01-06T11:57:55;11.90;61.80
71237;DHT22;58984;51.960;5.582;2024-01-06T12:00:21;11.90;61.80
71237;DHT22;58984;51.960;5.582;2024-01-06T12:02:47;11.90;61.80
71237;DHT22;58984;51.960;5.582;2024-01-06T12:05:17;11.90;61.80
71237;DHT22;58984;51.960;5.582;2024-01-06T12:07:52;11.90;61.90
71237;DHT22;58984;51.960;5.582;2024-01-06T12:10:20;11.90;61.80
71237;DHT22;58984;51.960;5.582;2024-01-06T12:15:24;11.90;62.00
71237;DHT22;58984;51.960;5.582;2024-01-06T12:17:49;11.90;62.00
71237;DHT22;58984;51.960;5.582;2024-01-06T12:20:15;11.90;62.10
71237;DHT22;58984;51.960;5.582;2024-01-06T12:22:41;11.90;62.00
71237;DHT22;58984;51.960;5.582;2024-01-06T12:25:07;11.90;62.10
71237;DHT22;58984;51.960;5.582;2024-01-06T12:27:34;11.90;62.10
71237;DHT22;58984;51.960;5.582;2024-01-06T12:30:00;12.00;62.20
71237;DHT22;58984;51.960;5.582;2024-01-06T12:32:25;11.90;63.00
71237;DHT22;58984;51.960;5.582;2024-01-06T12:34:51;11.90;62.20
71237;DHT22;58984;51.960;5.582;2024-01-06T12:37:17;11.90;62.20
71237;DHT22;58984;51.960;5.582;2024-01-06T12:39:47;11.90;62.00
71237;DHT22;58984;51.960;5.582;2024-01-06T12:42:15;11.90;62.30
71237;DHT22;58984;51.960;5.582;2024-01-06T12:44:41;11.90;62.40
71237;DHT22;58984;51.960;5.582;2024-01-06T12:47:08;11.90;62.30
71237;DHT22;58984;51.960;5.582;2024-01-06T12:49:33;11.90;62.30
71237;DHT22;58984;51.960;5.582;2024-01-06T12:51:59;11.90;62.40
71237;DHT22;58984;51.960;5.582;2024-01-06T12:54:24;11.90;62.30
71237;DHT22;58984;51.960;5.582;2024-01-06T12:56:50;11.90;62.20
71237;DHT22;58984;51.960;5.582;2024-01-06T12:59:16;11.90;62.20
71237;DHT22;58984;51.960;5.582;2024-01-06T13:01:42;11.90;62.30
71237;DHT22;58984;51.960;5.582;2024-01-06T13:04:07;11.90;62.30
71237;DHT22;58984;51.960;5.582;2024-01-06T13:06:34;11.90;62.20
71237;DHT22;58984;51.960;5.582;2024-01-06T13:09:00;11.90;62.30
71237;DHT22;58984;51.960;5.582;2024-01-06T13:11:27;11.90;62.40
71237;DHT22;58984;51.960;5.582;2024-01-06T13:13:53;11.90;62.30
71237;DHT22;58984;51.960;5.582;2024-01-06T13:16:19;11.90;62.30
71237;DHT22;58984;51.960;5.582;2024-01-06T13:18:44;11.90;62.30
71237;DHT22;58984;51.960;5.582;2024-01-06T13:21:10;11.90;62.30
71237;DHT22;58984;51.960;5.582;2024-01-06T13:23:35;11.90;63.10
71237;DHT22;58984;51.960;5.582;2024-01-06T13:26:01;11.80;63.00
71237;DHT22;58984;51.960;5.582;2024-01-06T13:28:27;11.90;62.30
71237;DHT22;58984;51.960;5.582;2024-01-06T13:30:52;11.90;62.30
71237;DHT22;58984;51.960;5.582;2024-01-06T13:33:18;11.80;62.30
71237;DHT22;58984;51.960;5.582;2024-01-06T13:35:44;11.90;62.30
71237;DHT22;58984;51.960;5.582;2024-01-06T13:38:10;11.90;62.30
71237;DHT22;58984;51.960;5.582;2024-01-06T13:40:36;11.90;62.40
71237;DHT22;58984;51.960;5.582;2024-01-06T13:43:03;11.90;62.30
71237;DHT22;58984;51.960;5.582;2024-01-06T13:45:30;11.90;62.30
71237;DHT22;58984;51.960;5.582;2024-01-06T13:47:56;11.90;62.30
71237;DHT22;58984;51.960;5.582;2024-01-06T13:50:21;11.80;62.20
71237;DHT22;58984;51.960;5.582;2024-01-06T13:52:47;11.90;62.30
71237;DHT22;58984;51.960;5.582;2024-01-06T13:55:14;11.90;62.30
71237;DHT22;58984;51.960;5.582;2024-01-06T13:57:39;11.90;62.30
71237;DHT22;58984;51.960;5.582;2024-01-06T14:00:10;11.90;62.20
71237;DHT22;58984;51.960;5.582;2024-01-06T14:02:37;11.80;62.10
71237;DHT22;58984;51.960;5.582;2024-01-06T14:05:04;11.90;62.30
71237;DHT22;58984;51.960;5.582;2024-01-06T14:07:29;11.90;62.30
71237;DHT22;58984;51.960;5.582;2024-01-06T14:09:55;11.90;61.80
71237;DHT22;58984;51.960;5.582;2024-01-06T14:12:21;11.90;61.70
71237;DHT22;58984;51.960;5.582;2024-01-06T14:14:46;11.80;61.80
71237;DHT22;58984;51.960;5.582;2024-01-06T14:17:12;11.90;62.10
71237;DHT22;58984;51.960;5.582;2024-01-06T14:19:37;11.90;62.10
71237;DHT22;58984;51.960;5.582;2024-01-06T14:22:03;11.90;62.10
71237;DHT22;58984;51.960;5.582;2024-01-06T14:24:30;11.90;62.10
71237;DHT22;58984;51.960;5.582;2024-01-06T14:26:56;11.90;62.10
71237;DHT22;58984;51.960;5.582;2024-01-06T14:29:22;11.90;62.20
71237;DHT22;58984;51.960;5.582;2024-01-06T14:31:48;11.80;62.00
71237;DHT22;58984;51.960;5.582;2024-01-06T14:34:14;11.90;62.10
71237;DHT22;58984;51.960;5.582;2024-01-06T14:36:39;11.80;62.00
71237;DHT22;58984;51.960;5.582;2024-01-06T14:39:15;11.90;62.20
71237;DHT22;58984;51.960;5.582;2024-01-06T14:41:41;11.90;62.10
71237;DHT22;58984;51.960;5.582;2024-01-06T14:44:07;11.90;62.10
71237;DHT22;58984;51.960;5.582;2024-01-06T14:46:33;11.90;62.10
71237;DHT22;58984;51.960;5.582;2024-01-06T14:49:03;11.90;62.10
71237;DHT22;58984;51.960;5.582;2024-01-06T14:51:29;11.80;62.80
71237;DHT22;58984;51.960;5.582;2024-01-06T14:53:54;11.80;62.00
71237;DHT22;58984;51.960;5.582;2024-01-06T14:56:24;11.80;62.00
71237;DHT22;58984;51.960;5.582;2024-01-06T14:58:49;11.80;62.00
71237;DHT22;58984;51.960;5.582;2024-01-06T15:01:15;11.90;62.10
71237;DHT22;58984;51.960;5.582;2024-01-06T15:03:41;11.80;61.90
71237;DHT22;58984;51.960;5.582;2024-01-06T15:06:07;11.80;62.00
71237;DHT22;58984;51.960;5.582;2024-01-06T15:08:33;11.90;62.00
71237;DHT22;58984;51.960;5.582;2024-01-06T15:10:59;11.90;62.80
71237;DHT22;58984;51.960;5.582;2024-01-06T15:13:24;11.80;62.70
71237;DHT22;58984;51.960;5.582;2024-01-06T15:15:50;11.80;62.00
71237;DHT22;58984;51.960;5.582;2024-01-06T15:18:17;11.80;61.80
71237;DHT22;58984;51.960;5.582;2024-01-06T15:20:48;11.80;61.90
71237;DHT22;58984;51.960;5.582;2024-01-06T15:23:13;11.80;61.80
71237;DHT22;58984;51.960;5.582;2024-01-06T15:25:39;11.80;61.80